Time;durP1;ratioP1;P1;durP2;ratioP2;P2;SDS_P1;SDS_P2;PMS_P1;PMS_P2;Temp;Humidity;BMP_temperature;BMP_pressure;BME280_temperature;BME280_humidity;BME280_pressure;Samples;Min_cycle;Max_cycle;Signal;HPM_P1;HPM_P2
2024/03/20 00:02:17;;;;;;;11.77;5.50;;;;;;;;;;5052134;28;20039;-77
2024/03/20 00:04:43;;;;;;;13.00;4.72;;;;;;;;;;5052715;28;20045;-77
2024/03/20 00:07:08;;;;;;;17.00;5.10;;;;;;;;;;5052229;28;20033;-77
2024/03/20 00:09:34;;;;;;;13.00;5.30;;;;;;;;;;5052394;28;20045;-77
2024/03/20 00:12:00;;;;;;;11.52;5.55;;;;;;;;;;5052520;28;20074;-77
2024/03/20 00:14:26;;;;;;;13.57;4.70;;;;;;;;;;5052027;28;20124;-77
2024/03/20 00:16:51;;;;;;;12.35;5.28;;;;;;;;;;5052238;28;20067;-77
2024/03/20 00:19:17;;;;;;;12.70;5.00;;;;;;;;;;5051899;28;20441;-77
2024/03/20 00:21:43;;;;;;;10.50;4.65;;;;;;;;;;5052137;28;20051;-77
2024/03/20 00:24:09;;;;;;;15.05;6.95;;;;;;;;;;5052001;28;20460;-77
2024/03/20 00:26:35;;;;;;;26.00;10.77;;;;;;;;;;5051852;28;20072;-77
2024/03/20 00:29:00;;;;;;;26.95;12.30;;;;;;;;;;5052124;28;20045;-77
2024/03/20 00:31:26;;;;;;;20.23;12.45;;;;;;;;;;5051916;28;20049;-77
2024/03/20 00:33:52;;;;;;;22.80;9.75;;;;;;;;;;5051965;28;20120;-77
2024/03/20 00:36:18;;;;;;;17.02;6.80;;;;;;;;;;5051623;28;20040;-77
2024/03/20 00:38:43;;;;;;;18.75;6.72;;;;;;;;;;5052179;28;20044;-77
2024/03/20 00:41:09;;;;;;;16.70;6.43;;;;;;;;;;5051671;28;20047;-77
2024/03/20 00:43:36;;;;;;;15.00;6.82;;;;;;;;;;5051737;28;20044;-76
2024/03/20 00:46:02;;;;;;;19.90;6.88;;;;;;;;;;5052022;28;20040;-77
2024/03/20 00:48:27;;;;;;;17.63;6.47;;;;;;;;;;5051541;28;20124;-77
2024/03/20 00:50:53;;;;;;;14.48;6.25;;;;;;;;;;5051787;28;20497;-77
2024/03/20 00:53:19;;;;;;;16.40;5.15;;;;;;;;;;5051637;28;20472;-77
2024/03/20 00:55:44;;;;;;;21.05;6.45;;;;;;;;;;5051837;28;20041;-76
2024/03/20 00:58:11;;;;;;;13.63;4.70;;;;;;;;;;5051330;28;20120;-77
2024/03/20 01:00:38;;;;;;;19.92;6.65;;;;;;;;;;5051661;28;20037;-77
2024/03/20 01:03:04;;;;;;;13.32;4.95;;;;;;;;;;5050376;28;20412;-76
2024/03/20 01:05:30;;;;;;;12.48;5.07;;;;;;;;;;5051762;28;20093;-77
2024/03/20 01:07:56;;;;;;;16.35;5.47;;;;;;;;;;5051502;28;20480;-77
2024/03/20 01:10:22;;;;;;;15.57;5.15;;;;;;;;;;5051108;28;20041;-77
2024/03/20 01:12:48;;;;;;;15.07;4.75;;;;;;;;;;5051762;28;20048;-77
2024/03/20 01:15:14;;;;;;;15.00;4.38;;;;;;;;;;5051304;28;20040;-77
2024/03/20 01:17:40;;;;;;;18.35;4.60;;;;;;;;;;5051385;28;20090;-77
2024/03/20 01:20:07;;;;;;;16.13;5.15;;;;;;;;;;5051036;28;20033;-76
2024/03/20 01:22:37;;;;;;;14.70;4.82;;;;;;;;;;5051520;28;20049;-77
2024/03/20 01:25:04;;;;;;;11.40;4.65;;;;;;;;;;5051561;28;20391;-77
2024/03/20 01:27:30;;;;;;;13.32;4.63;;;;;;;;;;5051357;28;20037;-77
2024/03/20 01:29:55;;;;;;;15.73;5.35;;;;;;;;;;5051663;28;20045;-77
2024/03/20 01:32:21;;;;;;;15.98;4.88;;;;;;;;;;5050949;28;20053;-77
2024/03/20 01:34:47;;;;;;;16.13;5.70;;;;;;;;;;5051441;28;20037;-77
2024/03/20 01:37:14;;;;;;;15.27;4.60;;;;;;;;;;5051031;28;20045;-77
2024/03/20 01:39:40;;;;;;;13.35;4.90;;;;;;;;;;5051453;28;20423;-77
2024/03/20 01:42:06;;;;;;;12.57;4.90;;;;;;;;;;5051020;28;20479;-76
2024/03/20 01:44:32;;;;;;;16.58;5.20;;;;;;;;;;5051275;28;20120;-77
2024/03/20 01:46:58;;;;;;;15.73;5.38;;;;;;;;;;5051221;28;20041;-77
2024/03/20 01:49:24;;;;;;;17.95;6.20;;;;;;;;;;5050810;28;20072;-77
2024/03/20 01:51:51;;;;;;;14.05;4.97;;;;;;;;;;5051372;28;20127;-77
2024/03/20 01:54:18;;;;;;;18.73;5.93;;;;;;;;;;5050711;28;20044;-77
2024/03/20 01:56:44;;;;;;;12.98;5.35;;;;;;;;;;5051345;28;20051;-77
2024/03/20 01:59:10;;;;;;;17.98;5.75;;;;;;;;;;5050640;28;20056;-77
2024/03/20 02:01:36;;;;;;;17.85;6.10;;;;;;;;;;5051129;28;20037;-76
2024/03/20 02:04:05;;;;;;;16.08;6.05;;;;;;;;;;5051196;28;20041;-77
2024/03/20 02:06:32;;;;;;;17.48;5.95;;;;;;;;;;5050983;28;20121;-77
2024/03/20 02:08:59;;;;;;;14.43;5.47;;;;;;;;;;5050959;28;20119;-77
2024/03/20 02:11:27;;;;;;;20.50;6.18;;;;;;;;;;5050602;28;20045;-76
2024/03/20 02:13:54;;;;;;;18.30;5.80;;;;;;;;;;5051055;28;20049;-77
2024/03/20 02:16:20;;;;;;;18.33;6.10;;;;;;;;;;5054320;28;20043;-77
2024/03/20 02:18:48;;;;;;;17.67;6.35;;;;;;;;;;5054384;28;20057;-77
2024/03/20 02:21:23;;;;;;;14.88;6.57;;;;;;;;;;5054266;28;20037;-77
2024/03/20 02:23:51;;;;;;;12.23;6.40;;;;;;;;;;5054602;28;20433;-77
2024/03/20 02:26:17;;;;;;;18.70;7.47;;;;;;;;;;5054130;28;20040;-77
2024/03/20 02:28:44;;;;;;;15.55;7.95;;;;;;;;;;5054464;28;20041;-77
2024/03/20 02:31:12;;;;;;;18.08;7.70;;;;;;;;;;5053956;28;20525;-77
2024/03/20 02:33:39;;;;;;;27.15;7.15;;;;;;;;;;5037636;28;20037;-77
2024/03/20 02:36:05;;;;;;;20.33;7.05;;;;;;;;;;5053957;28;20078;-76
2024/03/20 02:38:37;;;;;;;17.15;7.40;;;;;;;;;;5054497;28;20055;-77
2024/03/20 02:41:03;;;;;;;19.10;6.93;;;;;;;;;;5054321;28;20052;-77
2024/03/20 02:43:29;;;;;;;17.75;6.57;;;;;;;;;;5054115;28;20045;-77
2024/03/20 02:45:55;;;;;;;16.48;6.97;;;;;;;;;;5054023;28;20143;-77
2024/03/20 02:48:21;;;;;;;17.65;6.43;;;;;;;;;;5053809;28;20426;-77
2024/03/20 02:50:47;;;;;;;24.05;7.43;;;;;;;;;;5054181;28;20063;-77
2024/03/20 02:53:13;;;;;;;18.08;7.05;;;;;;;;;;5053643;28;20045;-76
2024/03/20 02:55:41;;;;;;;21.20;7.40;;;;;;;;;;5053919;28;20033;-77
2024/03/20 02:58:07;;;;;;;18.67;7.23;;;;;;;;;;5053793;28;20386;-77
2024/03/20 03:00:33;;;;;;;18.75;6.55;;;;;;;;;;5053836;28;20037;-77
2024/03/20 03:02:59;;;;;;;19.10;7.22;;;;;;;;;;5053863;28;20037;-77
2024/03/20 03:05:26;;;;;;;18.23;7.97;;;;;;;;;;5053234;28;20057;-77
2024/03/20 03:07:53;;;;;;;24.48;8.10;;;;;;;;;;5053518;28;20472;-77
2024/03/20 03:10:19;;;;;;;25.85;7.93;;;;;;;;;;5053281;28;20045;-77
2024/03/20 03:12:48;;;;;;;17.90;7.50;;;;;;;;;;5053917;28;20045;-77
2024/03/20 03:15:15;;;;;;;19.13;7.38;;;;;;;;;;5053346;28;20051;-77
2024/03/20 03:17:41;;;;;;;19.27;7.28;;;;;;;;;;5053583;28;20047;-77
2024/03/20 03:20:14;;;;;;;20.88;7.72;;;;;;;;;;5053186;28;20043;-77
2024/03/20 03:22:42;;;;;;;13.75;7.55;;;;;;;;;;5053441;28;20464;-77
2024/03/20 03:25:09;;;;;;;18.02;6.93;;;;;;;;;;5053026;28;20090;-77
2024/03/20 03:27:35;;;;;;;14.75;8.15;;;;;;;;;;5052405;28;20041;-77
2024/03/20 03:30:02;;;;;;;16.20;8.45;;;;;;;;;;5053431;28;20082;-77
2024/03/20 03:32:28;;;;;;;14.93;7.90;;;;;;;;;;5052915;28;20134;-77
2024/03/20 03:34:54;;;;;;;18.60;8.27;;;;;;;;;;5053132;28;20037;-77
2024/03/20 03:37:20;;;;;;;18.70;9.07;;;;;;;;;;5052790;28;20041;-77
2024/03/20 03:39:46;;;;;;;19.42;8.40;;;;;;;;;;5053124;28;20396;-77
2024/03/20 03:42:15;;;;;;;20.17;9.10;;;;;;;;;;5052737;28;20391;-77
2024/03/20 03:44:42;;;;;;;20.73;9.23;;;;;;;;;;5053125;28;20498;-78
2024/03/20 03:47:08;;;;;;;18.17;8.60;;;;;;;;;;5052704;28;20047;-77
2024/03/20 03:49:33;;;;;;;16.33;8.57;;;;;;;;;;5053098;28;20041;-77
2024/03/20 03:51:59;;;;;;;18.15;8.05;;;;;;;;;;5036282;28;20044;-77
2024/03/20 03:54:25;;;;;;;17.08;8.85;;;;;;;;;;5052514;28;20032;-77
2024/03/20 03:56:52;;;;;;;20.58;8.20;;;;;;;;;;5052778;28;20483;-77
2024/03/20 03:59:18;;;;;;;20.08;8.57;;;;;;;;;;5052473;28;20041;-77
2024/03/20 04:01:45;;;;;;;19.13;7.63;;;;;;;;;;5036167;28;20287;-77
2024/03/20 04:04:11;;;;;;;12.20;7.55;;;;;;;;;;5052061;28;20094;-77
2024/03/20 04:06:37;;;;;;;22.88;8.50;;;;;;;;;;5052695;28;20040;-77
2024/03/20 04:09:02;;;;;;;16.27;7.43;;;;;;;;;;5052466;28;20041;-77
2024/03/20 04:11:29;;;;;;;17.33;7.53;;;;;;;;;;5052087;28;20041;-76
2024/03/20 04:13:54;;;;;;;20.90;7.75;;;;;;;;;;5052631;28;20037;-77
2024/03/20 04:16:20;;;;;;;15.45;7.45;;;;;;;;;;5051914;28;20094;-77
2024/03/20 04:18:46;;;;;;;14.35;7.30;;;;;;;;;;5035830;28;20045;-77
2024/03/20 04:21:12;;;;;;;14.73;6.85;;;;;;;;;;5051922;28;20087;-77
2024/03/20 04:23:37;;;;;;;15.45;7.05;;;;;;;;;;5052048;28;20091;-77
2024/03/20 04:26:04;;;;;;;17.90;7.10;;;;;;;;;;5052265;28;20379;-77
2024/03/20 04:28:29;;;;;;;14.75;7.30;;;;;;;;;;5051856;28;20677;-77
2024/03/20 04:30:55;;;;;;;19.50;7.63;;;;;;;;;;5035793;28;20039;-77
2024/03/20 04:33:22;;;;;;;14.85;7.32;;;;;;;;;;5052123;28;20045;-77
2024/03/20 04:35:48;;;;;;;15.98;6.82;;;;;;;;;;5052161;28;20090;-77
2024/03/20 04:38:14;;;;;;;14.52;7.03;;;;;;;;;;5051494;28;20435;-77
2024/03/20 04:40:40;;;;;;;16.17;7.35;;;;;;;;;;5051958;28;20140;-77
2024/03/20 04:43:05;;;;;;;18.98;6.85;;;;;;;;;;5051647;28;20107;-77
2024/03/20 04:45:31;;;;;;;17.38;7.57;;;;;;;;;;5051935;28;20124;-77
2024/03/20 04:47:57;;;;;;;13.85;7.07;;;;;;;;;;5051918;28;20140;-77
2024/03/20 04:50:23;;;;;;;14.30;7.85;;;;;;;;;;5051582;28;20060;-77
2024/03/20 04:52:49;;;;;;;16.30;7.28;;;;;;;;;;5051875;28;20041;-77
2024/03/20 04:55:15;;;;;;;14.85;6.53;;;;;;;;;;5051564;28;20123;-77
2024/03/20 04:57:41;;;;;;;12.60;6.45;;;;;;;;;;5051750;28;20556;-77
2024/03/20 05:00:13;;;;;;;12.43;6.88;;;;;;;;;;5051809;28;20043;-77
2024/03/20 05:02:39;;;;;;;14.63;6.63;;;;;;;;;;5051702;28;20037;-77
2024/03/20 05:05:06;;;;;;;11.30;6.40;;;;;;;;;;5051153;28;20045;-77
2024/03/20 05:07:32;;;;;;;13.40;7.72;;;;;;;;;;5051664;28;20044;-76
2024/03/20 05:09:58;;;;;;;15.00;7.30;;;;;;;;;;5051678;28;20041;-77
2024/03/20 05:12:24;;;;;;;13.98;7.88;;;;;;;;;;5051326;28;20153;-77
2024/03/20 05:14:50;;;;;;;11.23;6.93;;;;;;;;;;5051642;28;20045;-78
2024/03/20 05:17:15;;;;;;;12.98;6.55;;;;;;;;;;5051262;28;20103;-77
2024/03/20 05:19:41;;;;;;;15.82;7.40;;;;;;;;;;5051340;28;20037;-77
2024/03/20 05:22:07;;;;;;;14.02;7.13;;;;;;;;;;5034744;28;20041;-77
2024/03/20 05:24:32;;;;;;;11.23;6.72;;;;;;;;;;5051381;28;20037;-77
2024/03/20 05:26:58;;;;;;;14.43;6.60;;;;;;;;;;5051285;28;20041;-77
2024/03/20 05:29:24;;;;;;;15.38;6.13;;;;;;;;;;5051049;28;20045;-77
2024/03/20 05:31:50;;;;;;;10.02;5.93;;;;;;;;;;5051361;28;20132;-77
2024/03/20 05:34:15;;;;;;;11.98;5.45;;;;;;;;;;5050903;28;20238;-77
2024/03/20 05:36:41;;;;;;;7.70;5.03;;;;;;;;;;5051338;28;20056;-77
2024/03/20 05:39:08;;;;;;;9.70;5.35;;;;;;;;;;5051026;28;20052;-77
2024/03/20 05:41:34;;;;;;;13.18;5.63;;;;;;;;;;5051283;28;20055;-77
2024/03/20 05:43:59;;;;;;;8.30;4.15;;;;;;;;;;5050946;28;20045;-77
2024/03/20 05:46:25;;;;;;;10.40;4.82;;;;;;;;;;5050274;28;20047;-76
2024/03/20 05:48:51;;;;;;;8.13;4.45;;;;;;;;;;5051328;28;20049;-77
2024/03/20 05:51:17;;;;;;;9.80;4.90;;;;;;;;;;5047443;28;20123;-77
2024/03/20 05:53:42;;;;;;;9.35;4.93;;;;;;;;;;5044407;28;20040;-77
2024/03/20 05:56:08;;;;;;;12.85;5.18;;;;;;;;;;5043186;28;20037;-78
2024/03/20 05:58:34;;;;;;;7.18;4.30;;;;;;;;;;5045559;28;20076;-82
2024/03/20 06:01:00;;;;;;;7.25;4.80;;;;;;;;;;5043754;28;20124;-77
2024/03/20 06:03:26;;;;;;;9.88;4.70;;;;;;;;;;5043540;28;20045;-77
2024/03/20 06:05:51;;;;;;;8.45;4.10;;;;;;;;;;5045128;28;20048;-77
2024/03/20 06:08:17;;;;;;;9.70;4.72;;;;;;;;;;5048958;28;20045;-77
2024/03/20 06:10:43;;;;;;;12.48;4.70;;;;;;;;;;5054521;28;20045;-76
2024/03/20 06:13:09;;;;;;;6.70;4.78;;;;;;;;;;5050808;28;20052;-77
2024/03/20 06:15:36;;;;;;;8.05;4.13;;;;;;;;;;5048279;28;20040;-77
2024/03/20 06:18:02;;;;;;;9.95;5.25;;;;;;;;;;5042861;28;20041;-77
2024/03/20 06:20:28;;;;;;;8.77;4.25;;;;;;;;;;5040069;28;20040;-77
2024/03/20 06:22:53;;;;;;;9.60;4.85;;;;;;;;;;5052873;28;20045;-77
2024/03/20 06:25:19;;;;;;;10.32;4.22;;;;;;;;;;5051910;28;20047;-77
2024/03/20 06:27:45;;;;;;;10.98;4.45;;;;;;;;;;5053352;28;20037;-77
2024/03/20 06:30:11;;;;;;;10.35;5.22;;;;;;;;;;5052836;28;20487;-77
2024/03/20 06:32:44;;;;;;;7.75;4.18;;;;;;;;;;5054611;28;20382;-77
2024/03/20 06:35:10;;;;;;;9.90;4.60;;;;;;;;;;5053999;28;20055;-77
2024/03/20 06:37:36;;;;;;;7.70;4.63;;;;;;;;;;5053986;28;20375;-78
2024/03/20 06:40:06;;;;;;;10.77;5.40;;;;;;;;;;5054296;28;20086;-78
2024/03/20 06:42:32;;;;;;;9.43;4.82;;;;;;;;;;5053973;28;20423;-77
2024/03/20 06:44:58;;;;;;;13.30;6.30;;;;;;;;;;5052693;28;20051;-77
2024/03/20 06:47:24;;;;;;;9.82;4.90;;;;;;;;;;5051903;28;20098;-78
2024/03/20 06:49:51;;;;;;;13.98;5.25;;;;;;;;;;5053709;28;20407;-77
2024/03/20 06:52:19;;;;;;;10.80;5.45;;;;;;;;;;5053578;28;20037;-77
2024/03/20 06:54:46;;;;;;;;;;;;;;;;;;5054537;28;20037;-77
2024/03/20 06:57:13;;;;;;;11.38;4.68;;;;;;;;;;5053519;28;20252;-77
2024/03/20 06:59:43;;;;;;;13.45;4.47;;;;;;;;;;5053835;28;20067;-77
2024/03/20 07:02:09;;;;;;;9.68;4.70;;;;;;;;;;5052113;28;20041;-78
2024/03/20 07:04:36;;;;;;;7.38;4.10;;;;;;;;;;5053811;28;20402;-77
2024/03/20 07:07:03;;;;;;;11.80;5.78;;;;;;;;;;5053813;28;20049;-77
2024/03/20 07:09:32;;;;;;;10.50;6.03;;;;;;;;;;5053604;28;20468;-77
2024/03/20 07:11:58;;;;;;;10.68;5.97;;;;;;;;;;5053754;28;20383;-77
2024/03/20 07:14:26;;;;;;;13.93;5.78;;;;;;;;;;5053391;28;20055;-77
2024/03/20 07:16:52;;;;;;;10.00;4.63;;;;;;;;;;5037373;28;20361;-77
2024/03/20 07:19:18;;;;;;;10.43;4.82;;;;;;;;;;5053328;28;20318;-77
2024/03/20 07:21:44;;;;;;;9.88;4.43;;;;;;;;;;5053704;28;20037;-77
2024/03/20 07:24:10;;;;;;;8.40;4.10;;;;;;;;;;5036255;28;20068;-77
2024/03/20 07:26:37;;;;;;;7.22;3.95;;;;;;;;;;5053149;28;20055;-77
2024/03/20 07:29:07;;;;;;;8.85;5.22;;;;;;;;;;5036864;28;20045;-77
2024/03/20 07:31:33;;;;;;;9.40;4.72;;;;;;;;;;5053145;28;20049;-78
2024/03/20 07:34:00;;;;;;;12.48;5.60;;;;;;;;;;5053407;28;20530;-77
2024/03/20 07:36:27;;;;;;;11.73;5.55;;;;;;;;;;5032489;28;20042;-77
2024/03/20 07:38:56;;;;;;;9.43;5.47;;;;;;;;;;5043791;28;20037;-78
2024/03/20 07:41:22;;;;;;;9.18;4.75;;;;;;;;;;5040873;28;20052;-77
2024/03/20 07:43:48;;;;;;;14.32;7.85;;;;;;;;;;5051388;28;20052;-78
2024/03/20 07:46:14;;;;;;;25.83;13.63;;;;;;;;;;5050844;28;20102;-77
2024/03/20 07:48:44;;;;;;;21.73;11.73;;;;;;;;;;5051286;28;20041;-77
2024/03/20 07:51:10;;;;;;;19.33;10.50;;;;;;;;;;5051180;28;20468;-77
2024/03/20 07:53:36;;;;;;;15.95;8.27;;;;;;;;;;5051160;28;20064;-77
2024/03/20 07:56:03;;;;;;;17.25;8.90;;;;;;;;;;5051256;28;20072;-77
2024/03/20 07:58:29;;;;;;;14.18;7.15;;;;;;;;;;5051142;28;20051;-77
2024/03/20 08:00:57;;;;;;;14.05;8.32;;;;;;;;;;5051173;28;20049;-77
2024/03/20 08:03:22;;;;;;;18.57;9.63;;;;;;;;;;5051079;28;20383;-77
2024/03/20 08:05:48;;;;;;;20.50;8.38;;;;;;;;;;5051065;28;20280;-77
2024/03/20 08:08:14;;;;;;;14.27;6.68;;;;;;;;;;5034158;28;20041;-77
2024/03/20 08:10:40;;;;;;;10.70;5.15;;;;;;;;;;5050882;28;20479;-77
2024/03/20 08:13:09;;;;;;;10.45;4.90;;;;;;;;;;5050091;28;20367;-77
2024/03/20 08:15:39;;;;;;;9.55;4.50;;;;;;;;;;5051107;28;20033;-77
2024/03/20 08:18:07;;;;;;;10.02;4.75;;;;;;;;;;5050567;28;20049;-77
2024/03/20 08:20:35;;;;;;;8.63;3.97;;;;;;;;;;5050726;28;20051;-77
2024/03/20 08:23:01;;;;;;;9.77;3.78;;;;;;;;;;5050899;28;20053;-77
2024/03/20 08:25:28;;;;;;;7.63;4.22;;;;;;;;;;5044158;28;20038;-78
2024/03/20 08:27:55;;;;;;;7.65;3.75;;;;;;;;;;5047641;28;20041;-78
2024/03/20 08:30:21;;;;;;;8.32;3.97;;;;;;;;;;5049890;28;20037;-78
2024/03/20 08:32:48;;;;;;;6.75;4.13;;;;;;;;;;5050652;28;20041;-77
2024/03/20 08:35:16;;;;;;;9.23;4.82;;;;;;;;;;5049980;28;20041;-78
2024/03/20 08:37:45;;;;;;;8.43;4.43;;;;;;;;;;5050348;28;20400;-77
2024/03/20 08:40:13;;;;;;;8.45;4.95;;;;;;;;;;5033437;28;20041;-77
2024/03/20 08:42:42;;;;;;;;;;;;;;;;;;5050871;28;20047;-78
2024/03/20 08:45:09;;;;;;;;;;;;;;;;;;5050483;28;19931;-80
2024/03/20 08:47:35;;;;;;;12.05;6.65;;;;;;;;;;5050349;28;19921;-79
2024/03/20 08:50:03;;;;;;;9.75;5.40;;;;;;;;;;5050465;28;20045;-77
2024/03/20 08:52:29;;;;;;;11.35;6.05;;;;;;;;;;5049462;28;20475;-77
2024/03/20 08:54:55;;;;;;;14.23;6.00;;;;;;;;;;5050409;28;20079;-77
2024/03/20 08:57:21;;;;;;;8.18;5.47;;;;;;;;;;5049799;28;20476;-77
2024/03/20 08:59:47;;;;;;;8.35;5.00;;;;;;;;;;5050316;28;20051;-77
2024/03/20 09:02:13;;;;;;;9.55;5.28;;;;;;;;;;5049772;28;20048;-77
2024/03/20 09:04:40;;;;;;;10.30;5.75;;;;;;;;;;5050323;28;20391;-77
2024/03/20 09:07:07;;;;;;;8.50;5.45;;;;;;;;;;5049486;28;20047;-77
2024/03/20 09:09:33;;;;;;;7.57;5.75;;;;;;;;;;5050232;28;20047;-77
2024/03/20 09:11:59;;;;;;;8.38;4.85;;;;;;;;;;5050031;28;20053;-77
2024/03/20 09:14:25;;;;;;;8.38;4.88;;;;;;;;;;5049650;28;20494;-77
2024/03/20 09:16:53;;;;;;;9.70;4.55;;;;;;;;;;5050014;28;20073;-77
2024/03/20 09:19:21;;;;;;;7.53;4.43;;;;;;;;;;5049465;28;20061;-75
2024/03/20 09:21:47;;;;;;;10.70;4.88;;;;;;;;;;5049499;28;20743;-77
2024/03/20 09:24:16;;;;;;;11.48;4.50;;;;;;;;;;5049897;28;20049;-76
2024/03/20 09:26:42;;;;;;;8.82;3.80;;;;;;;;;;5053624;28;20041;-76
2024/03/20 09:29:08;;;;;;;10.27;3.72;;;;;;;;;;5053755;28;20048;-76
2024/03/20 09:31:34;;;;;;;7.95;4.20;;;;;;;;;;5053813;28;20037;-76
2024/03/20 09:34:00;;;;;;;8.35;4.47;;;;;;;;;;5054038;28;20084;-77
2024/03/20 09:36:26;;;;;;;7.97;4.53;;;;;;;;;;5053208;28;20064;-77
2024/03/20 09:38:52;;;;;;;7.45;4.75;;;;;;;;;;5054011;28;20472;-76
2024/03/20 09:41:22;;;;;;;8.02;4.28;;;;;;;;;;5053205;28;20499;-77
2024/03/20 09:43:52;;;;;;;9.90;4.78;;;;;;;;;;5054006;28;20455;-77
2024/03/20 09:46:19;;;;;;;10.05;4.68;;;;;;;;;;5053292;28;20373;-76
2024/03/20 09:48:48;;;;;;;10.73;4.22;;;;;;;;;;5053435;28;20394;-75
2024/03/20 09:51:18;;;;;;;6.60;3.83;;;;;;;;;;5036926;28;20049;-75
2024/03/20 09:53:53;;;;;;;11.05;3.78;;;;;;;;;;5053513;28;20071;-76
2024/03/20 09:56:21;;;;;;;11.32;4.68;;;;;;;;;;5053395;28;20585;-76
2024/03/20 09:58:48;;;;;;;12.63;5.00;;;;;;;;;;5053305;28;20040;-76
2024/03/20 10:01:16;;;;;;;14.20;5.97;;;;;;;;;;5053128;28;20045;-74
2024/03/20 10:03:45;;;;;;;11.30;5.35;;;;;;;;;;5053131;28;20041;-75
2024/03/20 10:06:11;;;;;;;10.30;5.43;;;;;;;;;;5053046;28;20495;-76
2024/03/20 10:08:38;;;;;;;12.80;6.63;;;;;;;;;;5053445;28;20056;-75
2024/03/20 10:11:07;;;;;;;11.63;5.93;;;;;;;;;;5052979;28;20037;-74
2024/03/20 10:13:34;;;;;;;9.05;6.28;;;;;;;;;;5053220;28;20056;-76
2024/03/20 10:16:08;;;;;;;9.43;5.35;;;;;;;;;;5053414;28;20041;-76
2024/03/20 10:18:35;;;;;;;13.52;5.35;;;;;;;;;;5055709;28;20060;-75
2024/03/20 10:21:02;;;;;;;13.50;5.07;;;;;;;;;;5056474;28;20051;-77
2024/03/20 10:23:28;;;;;;;9.52;4.40;;;;;;;;;;5055940;28;20082;-77
2024/03/20 10:25:58;;;;;;;12.35;4.18;;;;;;;;;;5056275;28;20051;-77
2024/03/20 10:28:35;;;;;;;17.70;5.35;;;;;;;;;;5042968;28;20417;-79
2024/03/20 10:31:03;;;;;;;24.27;7.05;;;;;;;;;;5055908;28;20432;-78
2024/03/20 10:33:29;;;;;;;11.50;4.43;;;;;;;;;;5056271;28;20041;-77
2024/03/20 10:35:55;;;;;;;9.82;3.92;;;;;;;;;;5055838;28;20036;-77
2024/03/20 10:38:24;;;;;;;10.05;3.70;;;;;;;;;;5055533;28;20048;-76
2024/03/20 10:40:50;;;;;;;;;;;;;;;;;;5056566;28;20040;-77
2024/03/20 10:43:20;;;;;;;10.65;4.03;;;;;;;;;;5055564;28;19920;-76
2024/03/20 10:45:48;;;;;;;9.20;3.88;;;;;;;;;;5039402;28;20493;-76
2024/03/20 10:48:18;;;;;;;10.00;4.00;;;;;;;;;;5055745;28;20046;-77
2024/03/20 10:50:47;;;;;;;12.20;3.90;;;;;;;;;;5055781;28;20046;-76
2024/03/20 10:53:14;;;;;;;6.65;3.50;;;;;;;;;;5055466;28;20043;-77
2024/03/20 10:55:42;;;;;;;8.80;3.53;;;;;;;;;;5055588;28;20085;-76
2024/03/20 10:58:11;;;;;;;11.33;3.50;;;;;;;;;;5055312;28;20073;-76
2024/03/20 11:00:42;;;;;;;11.70;4.07;;;;;;;;;;5055506;28;20287;-76
2024/03/20 11:03:42;;;;;;;8.63;3.65;;;;;;;;;;5055223;28;20040;-76
2024/03/20 11:06:46;;;;;;;15.50;4.70;;;;;;;;;;5046491;28;20449;-76
2024/03/20 11:09:20;;;;;;;22.20;13.10;;;;;;;;;;5044541;28;20038;-76
2024/03/20 11:11:46;;;;;;;22.05;14.98;;;;;;;;;;5055246;28;20536;-76
2024/03/20 11:14:22;;;;;;;123.82;61.95;;;;;;;;;;5055041;28;20041;-76
2024/03/20 11:16:48;;;;;;;80.10;40.38;;;;;;;;;;5038712;28;20041;-76
2024/03/20 11:19:14;;;;;;;19.45;10.48;;;;;;;;;;5054844;28;20045;-76
2024/03/20 11:21:40;;;;;;;18.60;9.20;;;;;;;;;;5055224;28;20036;-76
2024/03/20 11:24:06;;;;;;;15.02;8.98;;;;;;;;;;5054795;28;20037;-76
2024/03/20 11:26:34;;;;;;;10.15;4.20;;;;;;;;;;5054652;28;20045;-76
2024/03/20 11:29:02;;;;;;;5.80;3.67;;;;;;;;;;5055186;28;20048;-77
2024/03/20 11:31:29;;;;;;;15.73;12.25;;;;;;;;;;5054704;28;20047;-77
2024/03/20 11:33:55;;;;;;;8.23;5.53;;;;;;;;;;5055372;28;20392;-76
2024/03/20 11:36:21;;;;;;;7.07;3.03;;;;;;;;;;5054261;28;20139;-76
2024/03/20 11:38:48;;;;;;;6.72;3.97;;;;;;;;;;5054854;28;20048;-76
2024/03/20 11:41:17;;;;;;;7.13;3.28;;;;;;;;;;5054336;28;20040;-76
2024/03/20 11:43:44;;;;;;;9.68;3.90;;;;;;;;;;5054810;28;20047;-77
2024/03/20 11:46:11;;;;;;;9.77;4.38;;;;;;;;;;5054444;28;20123;-75
2024/03/20 11:48:38;;;;;;;10.40;4.55;;;;;;;;;;5053432;28;20033;-76
2024/03/20 11:51:09;;;;;;;7.40;3.60;;;;;;;;;;5054103;28;20386;-76
2024/03/20 11:53:35;;;;;;;5.10;3.30;;;;;;;;;;5048288;28;20051;-77
2024/03/20 11:56:01;;;;;;;8.25;4.15;;;;;;;;;;5051851;28;20037;-76
2024/03/20 11:58:28;;;;;;;7.18;4.10;;;;;;;;;;5045714;28;20398;-76
2024/03/20 12:00:53;;;;;;;12.32;11.02;;;;;;;;;;5035517;28;20124;-78
2024/03/20 12:03:21;;;;;;;11.65;6.03;;;;;;;;;;5037676;28;20467;-76
2024/03/20 12:05:48;;;;;;;9.90;6.60;;;;;;;;;;5054232;28;20040;-76
2024/03/20 12:08:14;;;;;;;7.20;3.50;;;;;;;;;;5053962;28;20040;-77
2024/03/20 12:10:42;;;;;;;8.23;3.75;;;;;;;;;;5054066;28;20410;-77
2024/03/20 12:13:12;;;;;;;7.55;4.32;;;;;;;;;;5054188;28;20041;-76
2024/03/20 12:15:42;;;;;;;8.05;4.15;;;;;;;;;;5054307;28;20090;-76
2024/03/20 12:18:09;;;;;;;3.45;2.67;;;;;;;;;;5046350;28;20138;-77
2024/03/20 12:20:34;;;;;;;5.65;2.40;;;;;;;;;;5049192;28;20052;-77
2024/03/20 12:23:07;;;;;;;6.68;3.33;;;;;;;;;;5053421;28;20041;-77
2024/03/20 12:25:33;;;;;;;4.40;2.60;;;;;;;;;;5051567;28;20370;-76
2024/03/20 12:27:59;;;;;;;5.63;3.97;;;;;;;;;;5052784;28;20044;-77
2024/03/20 12:30:25;;;;;;;4.20;2.50;;;;;;;;;;5050058;28;20475;-77
2024/03/20 12:32:52;;;;;;;8.32;3.20;;;;;;;;;;5037437;28;20056;-77
2024/03/20 12:35:18;;;;;;;3.97;2.40;;;;;;;;;;5051260;28;20047;-77
2024/03/20 12:37:44;;;;;;;5.97;2.42;;;;;;;;;;5051780;28;20054;-76
2024/03/20 12:40:12;;;;;;;4.30;2.40;;;;;;;;;;5043701;28;20048;-77
2024/03/20 12:42:39;;;;;;;3.15;2.30;;;;;;;;;;5041995;28;20051;-77
2024/03/20 12:45:06;;;;;;;2.92;2.05;;;;;;;;;;5047862;28;20050;-76
2024/03/20 12:47:32;;;;;;;5.65;2.40;;;;;;;;;;5052591;28;20050;-76
2024/03/20 12:49:58;;;;;;;3.70;2.72;;;;;;;;;;5037541;28;20052;-77
2024/03/20 12:52:25;;;;;;;4.72;2.50;;;;;;;;;;5049470;28;20488;-77
2024/03/20 12:54:51;;;;;;;3.88;2.40;;;;;;;;;;5050427;28;20090;-78
2024/03/20 12:57:18;;;;;;;4.30;2.42;;;;;;;;;;5048743;28;20043;-76
2024/03/20 12:59:43;;;;;;;3.45;2.47;;;;;;;;;;5049757;28;20037;-78
2024/03/20 13:02:14;;;;;;;4.75;2.10;;;;;;;;;;5048511;28;20067;-77
2024/03/20 13:04:40;;;;;;;7.00;2.40;;;;;;;;;;5048156;28;20044;-77
2024/03/20 13:07:11;;;;;;;6.47;2.90;;;;;;;;;;5048510;28;20045;-76
2024/03/20 13:09:37;;;;;;;8.35;3.55;;;;;;;;;;5046301;28;20040;-75
2024/03/20 13:12:04;;;;;;;4.88;2.80;;;;;;;;;;5036833;28;20040;-76
2024/03/20 13:14:30;;;;;;;7.20;3.60;;;;;;;;;;5044986;28;20390;-78
2024/03/20 13:16:56;;;;;;;6.07;3.97;;;;;;;;;;5048440;28;20489;-77
2024/03/20 13:19:23;;;;;;;6.50;3.47;;;;;;;;;;5043213;28;20045;-78
2024/03/20 13:21:49;;;;;;;6.03;3.53;;;;;;;;;;5039964;28;20052;-75
2024/03/20 13:24:16;;;;;;;4.55;3.22;;;;;;;;;;5047468;28;20563;-76
2024/03/20 13:26:48;;;;;;;5.22;2.95;;;;;;;;;;5053585;28;20051;-75
2024/03/20 13:29:18;;;;;;;7.28;3.15;;;;;;;;;;5049350;28;20480;-76
2024/03/20 13:31:44;;;;;;;6.80;2.30;;;;;;;;;;5047628;28;20044;-76
2024/03/20 13:34:13;;;;;;;5.85;2.40;;;;;;;;;;5040552;28;20091;-76
2024/03/20 13:36:45;;;;;;;5.22;2.28;;;;;;;;;;5042990;28;20053;-77
2024/03/20 13:39:22;;;;;;;4.38;2.30;;;;;;;;;;5041649;28;20052;-76
2024/03/20 13:41:57;;;;;;;4.72;2.80;;;;;;;;;;5044419;28;20051;-76
2024/03/20 13:44:24;;;;;;;5.28;2.42;;;;;;;;;;5026349;28;20044;-75
2024/03/20 13:46:50;;;;;;;5.90;2.55;;;;;;;;;;5022847;28;20082;-76
2024/03/20 13:49:17;;;;;;;5.70;2.42;;;;;;;;;;5023853;28;20045;-76
2024/03/20 13:51:44;;;;;;;7.05;2.40;;;;;;;;;;5026875;28;20039;-76
2024/03/20 13:54:10;;;;;;;4.93;2.30;;;;;;;;;;5039978;28;20390;-76
2024/03/20 13:56:36;;;;;;;4.25;2.70;;;;;;;;;;5041158;28;20095;-76
2024/03/20 13:59:03;;;;;;;4.10;2.22;;;;;;;;;;5042100;28;20455;-77
2024/03/20 14:01:33;;;;;;;4.57;2.22;;;;;;;;;;5042642;28;20357;-75
2024/03/20 14:03:59;;;;;;;2.72;2.00;;;;;;;;;;5041613;28;20045;-75
2024/03/20 14:06:29;;;;;;;4.03;2.22;;;;;;;;;;5042671;28;20044;-76
2024/03/20 14:08:58;;;;;;;5.03;2.20;;;;;;;;;;5042827;28;20033;-76
2024/03/20 14:11:25;;;;;;;4.93;2.20;;;;;;;;;;5045412;28;20052;-77
2024/03/20 14:13:51;;;;;;;5.43;2.90;;;;;;;;;;5046870;28;20045;-75
2024/03/20 14:16:19;;;;;;;6.40;3.50;;;;;;;;;;5047845;28;20044;-75
2024/03/20 14:18:45;;;;;;;8.68;4.10;;;;;;;;;;5046484;28;20041;-75
2024/03/20 14:21:14;;;;;;;9.82;4.75;;;;;;;;;;5048347;28;20048;-75
2024/03/20 14:23:41;;;;;;;8.60;4.85;;;;;;;;;;5046235;28;20045;-75
2024/03/20 14:26:22;;;;;;;9.70;5.07;;;;;;;;;;5049736;28;20029;-76
2024/03/20 14:28:58;;;;;;;9.75;5.55;;;;;;;;;;5029669;28;20041;-75
2024/03/20 14:31:25;;;;;;;9.05;5.75;;;;;;;;;;5046209;28;20053;-75
2024/03/20 14:33:52;;;;;;;9.63;5.55;;;;;;;;;;5046058;28;20037;-75
2024/03/20 14:36:18;;;;;;;10.90;6.32;;;;;;;;;;5048404;28;20037;-75